sensor_id;sensor_type;location;lat;lon;timestamp;P1;durP1;ratioP1;P2;durP2;ratioP2
19810;SDS011;10065;49.632;8.346;2022-08-01T00:00:55;3.70;;;1.20;;
19810;SDS011;10065;49.632;8.346;2022-08-01T00:03:23;2.28;;;1.20;;
19810;SDS011;10065;49.632;8.346;2022-08-01T00:05:52;2.55;;;1.30;;
19810;SDS011;10065;49.632;8.346;2022-08-01T00:08:19;2.58;;;1.20;;
19810;SDS011;10065;49.632;8.346;2022-08-01T00:10:47;3.10;;;1.40;;
19810;SDS011;10065;49.632;8.346;2022-08-01T00:13:15;2.58;;;1.20;;
19810;SDS011;10065;49.632;8.346;2022-08-01T00:15:43;2.83;;;1.10;;
19810;SDS011;10065;49.632;8.346;2022-08-01T00:18:19;2.22;;;1.10;;
19810;SDS011;10065;49.632;8.346;2022-08-01T00:20:47;2.72;;;1.48;;
19810;SDS011;10065;49.632;8.346;2022-08-01T00:23:17;7.65;;;1.25;;
19810;SDS011;10065;49.632;8.346;2022-08-01T00:25:44;1.35;;;0.85;;
19810;SDS011;10065;49.632;8.346;2022-08-01T00:28:12;2.85;;;1.30;;
19810;SDS011;10065;49.632;8.346;2022-08-01T00:30:40;5.45;;;1.17;;
19810;SDS011;10065;49.632;8.346;2022-08-01T00:33:08;2.15;;;0.80;;
19810;SDS011;10065;49.632;8.346;2022-08-01T00:35:35;2.25;;;1.02;;
19810;SDS011;10065;49.632;8.346;2022-08-01T00:38:03;2.28;;;1.08;;
19810;SDS011;10065;49.632;8.346;2022-08-01T00:40:32;2.97;;;1.00;;
19810;SDS011;10065;49.632;8.346;2022-08-01T00:43:00;2.67;;;0.90;;
19810;SDS011;10065;49.632;8.346;2022-08-01T00:45:28;3.13;;;1.10;;
19810;SDS011;10065;49.632;8.346;2022-08-01T00:47:56;3.30;;;1.02;;
19810;SDS011;10065;49.632;8.346;2022-08-01T00:50:24;3.42;;;0.82;;
19810;SDS011;10065;49.632;8.346;2022-08-01T00:52:57;2.20;;;0.82;;
19810;SDS011;10065;49.632;8.346;2022-08-01T00:55:32;2.38;;;1.13;;
19810;SDS011;10065;49.632;8.346;2022-08-01T00:58:15;3.20;;;1.10;;
19810;SDS011;10065;49.632;8.346;2022-08-01T01:00:49;1.83;;;1.02;;
19810;SDS011;10065;49.632;8.346;2022-08-01T01:03:25;1.70;;;0.90;;
19810;SDS011;10065;49.632;8.346;2022-08-01T01:12:59;2.83;;;1.00;;
19810;SDS011;10065;49.632;8.346;2022-08-01T01:15:33;2.28;;;0.90;;
19810;SDS011;10065;49.632;8.346;2022-08-01T01:18:09;2.25;;;1.17;;
19810;SDS011;10065;49.632;8.346;2022-08-01T01:20:40;1.90;;;0.70;;
19810;SDS011;10065;49.632;8.346;2022-08-01T01:23:19;2.35;;;1.00;;
19810;SDS011;10065;49.632;8.346;2022-08-01T01:26:11;4.22;;;0.98;;
19810;SDS011;10065;49.632;8.346;2022-08-01T01:29:05;3.70;;;1.10;;
19810;SDS011;10065;49.632;8.346;2022-08-01T01:32:14;6.40;;;1.00;;
19810;SDS011;10065;49.632;8.346;2022-08-01T01:34:55;5.82;;;1.20;;
19810;SDS011;10065;49.632;8.346;2022-08-01T01:37:26;2.75;;;1.10;;
19810;SDS011;10065;49.632;8.346;2022-08-01T01:39:56;1.40;;;0.77;;
19810;SDS011;10065;49.632;8.346;2022-08-01T01:42:29;1.67;;;0.73;;
19810;SDS011;10065;49.632;8.346;2022-08-01T01:45:12;3.08;;;0.75;;
19810;SDS011;10065;49.632;8.346;2022-08-01T01:47:42;1.67;;;1.02;;
19810;SDS011;10065;49.632;8.346;2022-08-01T01:50:12;1.92;;;0.95;;
19810;SDS011;10065;49.632;8.346;2022-08-01T01:53:03;2.42;;;1.00;;
19810;SDS011;10065;49.632;8.346;2022-08-01T01:55:50;1.90;;;0.80;;
19810;SDS011;10065;49.632;8.346;2022-08-01T01:58:20;2.33;;;0.98;;
19810;SDS011;10065;49.632;8.346;2022-08-01T02:01:05;2.88;;;1.00;;
19810;SDS011;10065;49.632;8.346;2022-08-01T02:03:46;2.20;;;0.95;;
19810;SDS011;10065;49.632;8.346;2022-08-01T02:08:58;1.70;;;0.85;;
19810;SDS011;10065;49.632;8.346;2022-08-01T02:11:37;2.53;;;1.00;;
19810;SDS011;10065;49.632;8.346;2022-08-01T02:14:30;3.53;;;1.13;;
19810;SDS011;10065;49.632;8.346;2022-08-01T02:17:03;3.58;;;1.02;;
19810;SDS011;10065;49.632;8.346;2022-08-01T02:48:53;4.60;;;1.10;;
19810;SDS011;10065;49.632;8.346;2022-08-01T02:51:25;1.98;;;1.00;;
19810;SDS011;10065;49.632;8.346;2022-08-01T02:53:54;3.47;;;1.00;;
19810;SDS011;10065;49.632;8.346;2022-08-01T02:56:24;2.50;;;1.00;;
19810;SDS011;10065;49.632;8.346;2022-08-01T02:59:02;2.70;;;1.00;;
19810;SDS011;10065;49.632;8.346;2022-08-01T03:01:32;1.90;;;1.00;;
19810;SDS011;10065;49.632;8.346;2022-08-01T03:04:03;2.13;;;0.90;;
19810;SDS011;10065;49.632;8.346;2022-08-01T03:06:36;1.30;;;0.80;;
19810;SDS011;10065;49.632;8.346;2022-08-01T03:09:06;4.18;;;1.33;;
19810;SDS011;10065;49.632;8.346;2022-08-01T03:12:06;1.42;;;0.88;;
19810;SDS011;10065;49.632;8.346;2022-08-01T03:14:38;2.25;;;1.10;;
19810;SDS011;10065;49.632;8.346;2022-08-01T03:17:15;2.90;;;1.15;;
19810;SDS011;10065;49.632;8.346;2022-08-01T03:20:44;1.53;;;0.80;;
19810;SDS011;10065;49.632;8.346;2022-08-01T03:23:13;3.58;;;1.10;;
19810;SDS011;10065;49.632;8.346;2022-08-01T03:25:43;2.97;;;1.00;;
19810;SDS011;10065;49.632;8.346;2022-08-01T03:28:13;2.93;;;1.27;;
19810;SDS011;10065;49.632;8.346;2022-08-01T03:30:43;2.63;;;1.27;;
19810;SDS011;10065;49.632;8.346;2022-08-01T03:37:05;1.50;;;1.08;;
19810;SDS011;10065;49.632;8.346;2022-08-01T03:39:44;1.95;;;1.20;;
19810;SDS011;10065;49.632;8.346;2022-08-01T03:42:24;2.87;;;1.10;;
19810;SDS011;10065;49.632;8.346;2022-08-01T03:44:57;3.93;;;1.30;;
19810;SDS011;10065;49.632;8.346;2022-08-01T03:47:29;2.53;;;1.30;;
19810;SDS011;10065;49.632;8.346;2022-08-01T03:50:10;3.63;;;1.23;;
19810;SDS011;10065;49.632;8.346;2022-08-01T03:52:44;4.13;;;1.23;;
19810;SDS011;10065;49.632;8.346;2022-08-01T03:55:17;3.57;;;1.37;;
19810;SDS011;10065;49.632;8.346;2022-08-01T03:58:11;3.15;;;1.15;;
19810;SDS011;10065;49.632;8.346;2022-08-01T04:00:42;1.88;;;1.15;;
19810;SDS011;10065;49.632;8.346;2022-08-01T04:03:15;5.80;;;1.17;;
19810;SDS011;10065;49.632;8.346;2022-08-01T04:05:44;2.38;;;1.42;;
19810;SDS011;10065;49.632;8.346;2022-08-01T04:08:13;2.35;;;1.15;;
19810;SDS011;10065;49.632;8.346;2022-08-01T04:10:46;2.65;;;1.23;;
19810;SDS011;10065;49.632;8.346;2022-08-01T04:13:21;2.35;;;1.17;;
19810;SDS011;10065;49.632;8.346;2022-08-01T04:16:01;5.18;;;1.40;;
19810;SDS011;10065;49.632;8.346;2022-08-01T04:18:37;4.88;;;1.30;;
19810;SDS011;10065;49.632;8.346;2022-08-01T04:21:04;7.35;;;1.40;;
19810;SDS011;10065;49.632;8.346;2022-08-01T04:23:34;5.65;;;1.63;;
19810;SDS011;10065;49.632;8.346;2022-08-01T04:26:02;3.17;;;1.40;;
19810;SDS011;10065;49.632;8.346;2022-08-01T04:28:31;3.47;;;1.60;;
19810;SDS011;10065;49.632;8.346;2022-08-01T04:31:03;5.15;;;1.45;;
19810;SDS011;10065;49.632;8.346;2022-08-01T04:33:35;3.72;;;1.15;;
19810;SDS011;10065;49.632;8.346;2022-08-01T04:36:08;7.68;;;1.88;;
19810;SDS011;10065;49.632;8.346;2022-08-01T04:38:48;6.28;;;1.95;;
19810;SDS011;10065;49.632;8.346;2022-08-01T04:41:22;4.00;;;1.70;;
19810;SDS011;10065;49.632;8.346;2022-08-01T04:47:03;5.20;;;1.58;;
19810;SDS011;10065;49.632;8.346;2022-08-01T04:49:31;8.10;;;1.63;;
19810;SDS011;10065;49.632;8.346;2022-08-01T04:52:29;4.45;;;1.90;;
19810;SDS011;10065;49.632;8.346;2022-08-01T04:55:25;3.70;;;1.90;;
19810;SDS011;10065;49.632;8.346;2022-08-01T04:57:53;5.40;;;2.30;;
19810;SDS011;10065;49.632;8.346;2022-08-01T05:00:21;8.65;;;2.63;;
19810;SDS011;10065;49.632;8.346;2022-08-01T05:02:52;7.20;;;1.92;;
19810;SDS011;10065;49.632;8.346;2022-08-01T05:05:26;6.18;;;2.15;;
19810;SDS011;10065;49.632;8.346;2022-08-01T05:08:13;5.88;;;2.78;;
19810;SDS011;10065;49.632;8.346;2022-08-01T05:14:02;6.75;;;1.52;;
19810;SDS011;10065;49.632;8.346;2022-08-01T05:16:36;3.25;;;1.48;;
19810;SDS011;10065;49.632;8.346;2022-08-01T05:19:04;4.82;;;1.60;;
19810;SDS011;10065;49.632;8.346;2022-08-01T05:21:40;3.22;;;1.50;;
19810;SDS011;10065;49.632;8.346;2022-08-01T05:24:10;5.68;;;1.67;;
19810;SDS011;10065;49.632;8.346;2022-08-01T05:27:01;15.18;;;2.10;;
19810;SDS011;10065;49.632;8.346;2022-08-01T05:30:07;6.65;;;3.90;;
19810;SDS011;10065;49.632;8.346;2022-08-01T05:36:02;4.13;;;1.30;;
19810;SDS011;10065;49.632;8.346;2022-08-01T05:38:30;3.83;;;1.60;;
19810;SDS011;10065;49.632;8.346;2022-08-01T05:41:08;4.35;;;1.50;;
19810;SDS011;10065;49.632;8.346;2022-08-01T05:43:44;6.25;;;1.50;;
19810;SDS011;10065;49.632;8.346;2022-08-01T05:46:12;3.97;;;1.35;;
19810;SDS011;10065;49.632;8.346;2022-08-01T05:48:44;6.68;;;1.45;;
19810;SDS011;10065;49.632;8.346;2022-08-01T05:51:21;6.30;;;1.60;;
19810;SDS011;10065;49.632;8.346;2022-08-01T05:53:49;6.05;;;1.50;;
19810;SDS011;10065;49.632;8.346;2022-08-01T05:56:20;5.38;;;1.83;;
19810;SDS011;10065;49.632;8.346;2022-08-01T05:59:00;3.70;;;1.55;;
19810;SDS011;10065;49.632;8.346;2022-08-01T06:01:30;4.95;;;1.75;;
19810;SDS011;10065;49.632;8.346;2022-08-01T06:03:58;4.53;;;1.77;;
19810;SDS011;10065;49.632;8.346;2022-08-01T06:06:29;4.90;;;1.77;;
19810;SDS011;10065;49.632;8.346;2022-08-01T06:08:57;4.63;;;1.17;;
19810;SDS011;10065;49.632;8.346;2022-08-01T06:11:24;2.83;;;1.30;;
19810;SDS011;10065;49.632;8.346;2022-08-01T06:13:55;6.63;;;1.25;;
19810;SDS011;10065;49.632;8.346;2022-08-01T06:16:25;4.63;;;1.45;;
19810;SDS011;10065;49.632;8.346;2022-08-01T06:18:52;6.53;;;1.50;;
19810;SDS011;10065;49.632;8.346;2022-08-01T06:21:23;7.55;;;1.27;;
19810;SDS011;10065;49.632;8.346;2022-08-01T06:23:51;3.92;;;1.20;;
19810;SDS011;10065;49.632;8.346;2022-08-01T06:26:19;1.75;;;0.95;;
19810;SDS011;10065;49.632;8.346;2022-08-01T06:28:47;3.97;;;1.45;;
19810;SDS011;10065;49.632;8.346;2022-08-01T06:31:15;2.83;;;1.20;;
19810;SDS011;10065;49.632;8.346;2022-08-01T06:33:44;2.67;;;1.20;;
19810;SDS011;10065;49.632;8.346;2022-08-01T06:36:12;3.30;;;1.10;;
19810;SDS011;10065;49.632;8.346;2022-08-01T06:38:42;3.40;;;1.15;;
19810;SDS011;10065;49.632;8.346;2022-08-01T06:41:10;2.55;;;1.27;;
19810;SDS011;10065;49.632;8.346;2022-08-01T06:43:37;4.07;;;1.20;;
19810;SDS011;10065;49.632;8.346;2022-08-01T06:46:05;2.65;;;1.00;;
19810;SDS011;10065;49.632;8.346;2022-08-01T06:48:33;2.80;;;1.20;;
19810;SDS011;10065;49.632;8.346;2022-08-01T06:51:03;2.80;;;1.33;;
19810;SDS011;10065;49.632;8.346;2022-08-01T06:53:43;3.08;;;1.52;;
19810;SDS011;10065;49.632;8.346;2022-08-01T06:56:11;4.90;;;1.85;;
19810;SDS011;10065;49.632;8.346;2022-08-01T06:58:41;2.88;;;1.42;;
19810;SDS011;10065;49.632;8.346;2022-08-01T07:01:09;4.30;;;1.30;;
19810;SDS011;10065;49.632;8.346;2022-08-01T07:03:37;4.15;;;1.10;;
19810;SDS011;10065;49.632;8.346;2022-08-01T07:06:20;3.67;;;1.60;;
19810;SDS011;10065;49.632;8.346;2022-08-01T07:08:49;1.50;;;0.93;;
19810;SDS011;10065;49.632;8.346;2022-08-01T07:11:17;6.20;;;1.50;;
19810;SDS011;10065;49.632;8.346;2022-08-01T07:13:44;5.78;;;1.67;;
19810;SDS011;10065;49.632;8.346;2022-08-01T07:16:12;5.53;;;1.27;;
19810;SDS011;10065;49.632;8.346;2022-08-01T07:18:40;4.95;;;1.02;;
19810;SDS011;10065;49.632;8.346;2022-08-01T07:21:08;2.70;;;1.38;;
19810;SDS011;10065;49.632;8.346;2022-08-01T07:23:58;4.35;;;1.50;;
19810;SDS011;10065;49.632;8.346;2022-08-01T07:26:25;2.05;;;1.15;;
19810;SDS011;10065;49.632;8.346;2022-08-01T07:28:53;4.07;;;1.40;;
19810;SDS011;10065;49.632;8.346;2022-08-01T07:31:21;2.60;;;1.25;;
19810;SDS011;10065;49.632;8.346;2022-08-01T07:33:54;4.95;;;1.25;;
19810;SDS011;10065;49.632;8.346;2022-08-01T07:36:22;8.05;;;1.45;;
19810;SDS011;10065;49.632;8.346;2022-08-01T07:38:50;5.18;;;1.90;;
19810;SDS011;10065;49.632;8.346;2022-08-01T07:41:19;2.35;;;1.17;;
19810;SDS011;10065;49.632;8.346;2022-08-01T07:44:07;3.25;;;1.45;;
19810;SDS011;10065;49.632;8.346;2022-08-01T07:46:35;7.05;;;1.52;;
19810;SDS011;10065;49.632;8.346;2022-08-01T07:49:03;3.03;;;1.63;;
19810;SDS011;10065;49.632;8.346;2022-08-01T07:51:31;8.15;;;1.80;;
19810;SDS011;10065;49.632;8.346;2022-08-01T07:53:58;3.63;;;1.65;;
19810;SDS011;10065;49.632;8.346;2022-08-01T07:56:28;3.60;;;1.50;;
19810;SDS011;10065;49.632;8.346;2022-08-01T07:58:56;1.70;;;1.35;;
19810;SDS011;10065;49.632;8.346;2022-08-01T08:01:23;4.95;;;1.42;;
19810;SDS011;10065;49.632;8.346;2022-08-01T08:03:51;4.80;;;1.65;;
19810;SDS011;10065;49.632;8.346;2022-08-01T08:06:19;3.50;;;1.33;;
19810;SDS011;10065;49.632;8.346;2022-08-01T08:08:47;3.72;;;1.77;;
19810;SDS011;10065;49.632;8.346;2022-08-01T08:11:15;3.72;;;1.45;;
19810;SDS011;10065;49.632;8.346;2022-08-01T08:13:44;7.15;;;2.22;;
19810;SDS011;10065;49.632;8.346;2022-08-01T08:16:12;4.32;;;1.80;;
19810;SDS011;10065;49.632;8.346;2022-08-01T08:18:40;5.05;;;1.42;;
19810;SDS011;10065;49.632;8.346;2022-08-01T08:21:08;2.65;;;1.33;;
19810;SDS011;10065;49.632;8.346;2022-08-01T08:23:35;3.33;;;1.48;;
19810;SDS011;10065;49.632;8.346;2022-08-01T08:26:20;2.15;;;1.52;;
19810;SDS011;10065;49.632;8.346;2022-08-01T08:28:51;10.27;;;1.83;;
19810;SDS011;10065;49.632;8.346;2022-08-01T08:31:18;3.90;;;1.85;;
19810;SDS011;10065;49.632;8.346;2022-08-01T08:34:06;3.25;;;1.20;;
19810;SDS011;10065;49.632;8.346;2022-08-01T08:36:34;1.58;;;1.33;;
19810;SDS011;10065;49.632;8.346;2022-08-01T08:39:03;3.70;;;1.48;;
19810;SDS011;10065;49.632;8.346;2022-08-01T08:41:31;2.53;;;1.83;;
19810;SDS011;10065;49.632;8.346;2022-08-01T08:44:05;2.53;;;1.70;;
19810;SDS011;10065;49.632;8.346;2022-08-01T08:46:38;3.22;;;1.83;;
19810;SDS011;10065;49.632;8.346;2022-08-01T08:49:08;3.47;;;1.58;;
19810;SDS011;10065;49.632;8.346;2022-08-01T08:51:38;2.40;;;1.67;;
19810;SDS011;10065;49.632;8.346;2022-08-01T08:54:07;4.03;;;1.80;;
19810;SDS011;10065;49.632;8.346;2022-08-01T08:56:37;3.08;;;1.65;;
19810;SDS011;10065;49.632;8.346;2022-08-01T08:59:07;2.78;;;1.52;;
19810;SDS011;10065;49.632;8.346;2022-08-01T09:01:34;4.20;;;1.52;;
19810;SDS011;10065;49.632;8.346;2022-08-01T09:04:03;5.43;;;1.80;;
19810;SDS011;10065;49.632;8.346;2022-08-01T09:06:31;2.38;;;1.42;;
19810;SDS011;10065;49.632;8.346;2022-08-01T09:08:59;3.95;;;1.67;;
19810;SDS011;10065;49.632;8.346;2022-08-01T09:11:27;4.50;;;2.20;;
19810;SDS011;10065;49.632;8.346;2022-08-01T09:14:03;3.50;;;2.50;;
19810;SDS011;10065;49.632;8.346;2022-08-01T09:16:35;2.63;;;1.73;;
19810;SDS011;10065;49.632;8.346;2022-08-01T09:19:12;3.10;;;1.60;;
19810;SDS011;10065;49.632;8.346;2022-08-01T09:22:02;3.90;;;1.73;;
19810;SDS011;10065;49.632;8.346;2022-08-01T09:24:33;3.42;;;1.90;;
19810;SDS011;10065;49.632;8.346;2022-08-01T09:27:01;3.22;;;1.50;;
19810;SDS011;10065;49.632;8.346;2022-08-01T09:29:48;2.92;;;1.70;;
19810;SDS011;10065;49.632;8.346;2022-08-01T09:32:28;2.35;;;1.75;;
19810;SDS011;10065;49.632;8.346;2022-08-01T09:35:21;3.40;;;1.95;;
19810;SDS011;10065;49.632;8.346;2022-08-01T09:38:13;2.80;;;1.90;;
19810;SDS011;10065;49.632;8.346;2022-08-01T09:40:43;3.53;;;1.92;;
19810;SDS011;10065;49.632;8.346;2022-08-01T09:43:15;2.65;;;1.50;;
19810;SDS011;10065;49.632;8.346;2022-08-01T09:45:45;5.97;;;2.08;;
19810;SDS011;10065;49.632;8.346;2022-08-01T09:48:16;4.10;;;1.88;;
19810;SDS011;10065;49.632;8.346;2022-08-01T09:50:44;10.00;;;2.13;;
19810;SDS011;10065;49.632;8.346;2022-08-01T09:53:14;7.07;;;2.22;;
19810;SDS011;10065;49.632;8.346;2022-08-01T09:56:07;3.65;;;2.00;;
19810;SDS011;10065;49.632;8.346;2022-08-01T09:58:48;2.33;;;1.80;;
19810;SDS011;10065;49.632;8.346;2022-08-01T10:01:26;5.90;;;1.85;;
19810;SDS011;10065;49.632;8.346;2022-08-01T10:04:08;4.93;;;2.10;;
19810;SDS011;10065;49.632;8.346;2022-08-01T10:06:37;4.60;;;2.22;;
19810;SDS011;10065;49.632;8.346;2022-08-01T10:09:08;3.13;;;1.83;;
19810;SDS011;10065;49.632;8.346;2022-08-01T10:11:36;3.70;;;2.03;;
19810;SDS011;10065;49.632;8.346;2022-08-01T10:14:05;4.18;;;2.35;;
19810;SDS011;10065;49.632;8.346;2022-08-01T10:16:36;2.85;;;1.88;;
19810;SDS011;10065;49.632;8.346;2022-08-01T10:19:07;3.95;;;2.13;;
19810;SDS011;10065;49.632;8.346;2022-08-01T10:21:40;3.75;;;1.77;;
19810;SDS011;10065;49.632;8.346;2022-08-01T10:24:24;2.53;;;1.77;;
19810;SDS011;10065;49.632;8.346;2022-08-01T10:26:55;3.03;;;1.70;;
19810;SDS011;10065;49.632;8.346;2022-08-01T10:29:40;4.95;;;2.15;;
19810;SDS011;10065;49.632;8.346;2022-08-01T10:32:30;7.47;;;2.55;;
19810;SDS011;10065;49.632;8.346;2022-08-01T10:35:00;3.35;;;2.10;;
19810;SDS011;10065;49.632;8.346;2022-08-01T10:37:32;3.97;;;2.03;;
19810;SDS011;10065;49.632;8.346;2022-08-01T10:40:16;2.95;;;2.00;;
19810;SDS011;10065;49.632;8.346;2022-08-01T10:43:00;2.58;;;2.03;;
19810;SDS011;10065;49.632;8.346;2022-08-01T10:45:29;4.35;;;1.92;;
19810;SDS011;10065;49.632;8.346;2022-08-01T10:48:02;2.65;;;1.88;;
19810;SDS011;10065;49.632;8.346;2022-08-01T10:50:37;3.50;;;2.08;;
19810;SDS011;10065;49.632;8.346;2022-08-01T10:53:14;5.03;;;2.08;;
19810;SDS011;10065;49.632;8.346;2022-08-01T10:56:00;2.65;;;1.95;;
19810;SDS011;10065;49.632;8.346;2022-08-01T10:58:29;4.70;;;2.15;;
19810;SDS011;10065;49.632;8.346;2022-08-01T11:01:15;5.20;;;1.90;;
19810;SDS011;10065;49.632;8.346;2022-08-01T11:03:57;3.25;;;1.83;;
19810;SDS011;10065;49.632;8.346;2022-08-01T11:06:42;4.75;;;1.40;;
19810;SDS011;10065;49.632;8.346;2022-08-01T11:09:18;4.45;;;1.65;;
19810;SDS011;10065;49.632;8.346;2022-08-01T11:12:03;5.13;;;1.77;;
19810;SDS011;10065;49.632;8.346;2022-08-01T11:18:01;6.15;;;1.80;;
19810;SDS011;10065;49.632;8.346;2022-08-01T11:20:32;2.47;;;1.30;;
19810;SDS011;10065;49.632;8.346;2022-08-01T11:23:16;3.35;;;1.65;;
19810;SDS011;10065;49.632;8.346;2022-08-01T11:28:39;1.67;;;1.30;;
19810;SDS011;10065;49.632;8.346;2022-08-01T11:31:28;4.53;;;1.65;;
19810;SDS011;10065;49.632;8.346;2022-08-01T11:34:02;3.58;;;1.20;;
19810;SDS011;10065;49.632;8.346;2022-08-01T11:36:31;3.30;;;1.20;;
19810;SDS011;10065;49.632;8.346;2022-08-01T11:39:19;2.88;;;1.75;;
19810;SDS011;10065;49.632;8.346;2022-08-01T11:41:47;1.98;;;1.40;;
19810;SDS011;10065;49.632;8.346;2022-08-01T11:44:29;2.78;;;1.40;;
19810;SDS011;10065;49.632;8.346;2022-08-01T11:47:16;2.17;;;1.20;;
19810;SDS011;10065;49.632;8.346;2022-08-01T11:49:47;2.05;;;1.10;;
19810;SDS011;10065;49.632;8.346;2022-08-01T11:52:26;4.88;;;1.27;;
19810;SDS011;10065;49.632;8.346;2022-08-01T11:54:57;2.92;;;1.33;;
19810;SDS011;10065;49.632;8.346;2022-08-01T11:57:26;3.13;;;1.00;;
19810;SDS011;10065;49.632;8.346;2022-08-01T12:00:02;2.38;;;1.10;;
19810;SDS011;10065;49.632;8.346;2022-08-01T12:02:42;3.63;;;1.40;;
19810;SDS011;10065;49.632;8.346;2022-08-01T12:05:12;2.92;;;1.17;;
19810;SDS011;10065;49.632;8.346;2022-08-01T12:07:44;5.20;;;1.40;;
19810;SDS011;10065;49.632;8.346;2022-08-01T12:10:18;2.33;;;1.48;;
19810;SDS011;10065;49.632;8.346;2022-08-01T12:12:48;3.08;;;1.70;;
19810;SDS011;10065;49.632;8.346;2022-08-01T12:15:17;4.57;;;1.50;;
19810;SDS011;10065;49.632;8.346;2022-08-01T12:17:47;3.90;;;1.45;;
19810;SDS011;10065;49.632;8.346;2022-08-01T12:20:25;4.25;;;1.48;;
19810;SDS011;10065;49.632;8.346;2022-08-01T12:22:58;3.25;;;1.40;;
19810;SDS011;10065;49.632;8.346;2022-08-01T12:25:27;4.75;;;1.25;;
19810;SDS011;10065;49.632;8.346;2022-08-01T12:27:58;2.63;;;1.80;;
19810;SDS011;10065;49.632;8.346;2022-08-01T12:30:27;4.90;;;1.58;;
19810;SDS011;10065;49.632;8.346;2022-08-01T12:32:57;5.38;;;1.60;;
19810;SDS011;10065;49.632;8.346;2022-08-01T12:35:25;1.33;;;1.02;;
19810;SDS011;10065;49.632;8.346;2022-08-01T12:37:55;4.70;;;1.60;;
19810;SDS011;10065;49.632;8.346;2022-08-01T12:40:30;3.42;;;1.50;;
19810;SDS011;10065;49.632;8.346;2022-08-01T12:42:59;4.53;;;1.50;;
19810;SDS011;10065;49.632;8.346;2022-08-01T12:45:29;2.25;;;1.30;;
19810;SDS011;10065;49.632;8.346;2022-08-01T12:48:05;1.77;;;1.17;;
19810;SDS011;10065;49.632;8.346;2022-08-01T12:50:35;4.80;;;1.42;;
19810;SDS011;10065;49.632;8.346;2022-08-01T12:53:07;1.88;;;1.42;;
19810;SDS011;10065;49.632;8.346;2022-08-01T12:55:45;4.72;;;1.27;;
19810;SDS011;10065;49.632;8.346;2022-08-01T12:58:30;2.58;;;1.05;;
19810;SDS011;10065;49.632;8.346;2022-08-01T13:01:02;3.83;;;1.70;;
19810;SDS011;10065;49.632;8.346;2022-08-01T13:03:31;4.75;;;1.55;;
19810;SDS011;10065;49.632;8.346;2022-08-01T13:05:59;2.25;;;1.20;;
19810;SDS011;10065;49.632;8.346;2022-08-01T13:08:30;4.95;;;1.27;;
19810;SDS011;10065;49.632;8.346;2022-08-01T13:11:00;7.03;;;2.10;;
19810;SDS011;10065;49.632;8.346;2022-08-01T13:13:37;3.97;;;1.52;;
19810;SDS011;10065;49.632;8.346;2022-08-01T13:16:06;2.17;;;1.00;;
19810;SDS011;10065;49.632;8.346;2022-08-01T13:18:41;2.10;;;0.80;;
19810;SDS011;10065;49.632;8.346;2022-08-01T13:21:17;3.20;;;1.00;;
19810;SDS011;10065;49.632;8.346;2022-08-01T13:24:01;2.13;;;0.85;;
19810;SDS011;10065;49.632;8.346;2022-08-01T13:26:38;2.50;;;1.23;;
19810;SDS011;10065;49.632;8.346;2022-08-01T13:29:10;1.90;;;0.98;;
19810;SDS011;10065;49.632;8.346;2022-08-01T13:31:39;4.32;;;1.08;;
19810;SDS011;10065;49.632;8.346;2022-08-01T13:34:07;2.67;;;1.27;;
19810;SDS011;10065;49.632;8.346;2022-08-01T13:36:36;3.35;;;0.90;;
19810;SDS011;10065;49.632;8.346;2022-08-01T13:39:05;3.30;;;1.33;;
19810;SDS011;10065;49.632;8.346;2022-08-01T13:41:51;2.13;;;0.95;;
19810;SDS011;10065;49.632;8.346;2022-08-01T13:44:19;1.52;;;1.00;;
19810;SDS011;10065;49.632;8.346;2022-08-01T13:46:47;1.92;;;1.08;;
19810;SDS011;10065;49.632;8.346;2022-08-01T13:49:17;1.77;;;1.13;;
19810;SDS011;10065;49.632;8.346;2022-08-01T13:51:45;5.15;;;1.20;;
19810;SDS011;10065;49.632;8.346;2022-08-01T13:54:14;3.10;;;0.80;;
19810;SDS011;10065;49.632;8.346;2022-08-01T13:56:42;1.95;;;1.10;;
19810;SDS011;10065;49.632;8.346;2022-08-01T13:59:10;3.05;;;1.00;;
19810;SDS011;10065;49.632;8.346;2022-08-01T14:01:38;2.20;;;1.10;;
19810;SDS011;10065;49.632;8.346;2022-08-01T14:04:06;2.85;;;1.20;;
19810;SDS011;10065;49.632;8.346;2022-08-01T14:06:34;5.45;;;1.30;;
19810;SDS011;10065;49.632;8.346;2022-08-01T14:09:02;5.38;;;1.10;;
19810;SDS011;10065;49.632;8.346;2022-08-01T14:11:44;4.43;;;1.27;;
19810;SDS011;10065;49.632;8.346;2022-08-01T14:14:13;6.25;;;1.50;;
19810;SDS011;10065;49.632;8.346;2022-08-01T14:16:41;2.42;;;0.93;;
19810;SDS011;10065;49.632;8.346;2022-08-01T14:19:10;3.75;;;1.02;;
19810;SDS011;10065;49.632;8.346;2022-08-01T14:21:38;2.17;;;0.90;;
19810;SDS011;10065;49.632;8.346;2022-08-01T14:24:06;4.50;;;1.00;;
19810;SDS011;10065;49.632;8.346;2022-08-01T14:26:35;5.32;;;1.17;;
19810;SDS011;10065;49.632;8.346;2022-08-01T14:29:05;2.22;;;1.10;;
19810;SDS011;10065;49.632;8.346;2022-08-01T14:31:32;3.47;;;1.20;;
19810;SDS011;10065;49.632;8.346;2022-08-01T14:34:00;4.55;;;1.30;;
19810;SDS011;10065;49.632;8.346;2022-08-01T14:36:28;1.90;;;1.20;;
19810;SDS011;10065;49.632;8.346;2022-08-01T14:39:03;2.38;;;0.90;;
19810;SDS011;10065;49.632;8.346;2022-08-01T14:41:31;2.50;;;1.20;;
19810;SDS011;10065;49.632;8.346;2022-08-01T14:44:00;6.28;;;1.67;;
19810;SDS011;10065;49.632;8.346;2022-08-01T14:46:29;2.67;;;1.30;;
19810;SDS011;10065;49.632;8.346;2022-08-01T14:48:59;2.65;;;1.10;;
19810;SDS011;10065;49.632;8.346;2022-08-01T14:51:27;6.38;;;1.30;;
19810;SDS011;10065;49.632;8.346;2022-08-01T14:53:59;1.92;;;1.15;;
19810;SDS011;10065;49.632;8.346;2022-08-01T14:56:29;2.92;;;1.27;;
19810;SDS011;10065;49.632;8.346;2022-08-01T14:58:56;3.67;;;1.45;;
19810;SDS011;10065;49.632;8.346;2022-08-01T15:01:24;5.03;;;1.70;;
19810;SDS011;10065;49.632;8.346;2022-08-01T15:03:54;3.42;;;1.85;;
19810;SDS011;10065;49.632;8.346;2022-08-01T15:06:22;5.85;;;2.25;;
19810;SDS011;10065;49.632;8.346;2022-08-01T15:08:49;6.45;;;2.97;;
19810;SDS011;10065;49.632;8.346;2022-08-01T15:11:18;9.90;;;4.07;;
19810;SDS011;10065;49.632;8.346;2022-08-01T15:13:46;18.67;;;4.30;;
19810;SDS011;10065;49.632;8.346;2022-08-01T15:16:35;10.98;;;4.93;;
19810;SDS011;10065;49.632;8.346;2022-08-01T15:19:04;6.72;;;2.78;;
19810;SDS011;10065;49.632;8.346;2022-08-01T15:21:32;5.00;;;2.50;;
19810;SDS011;10065;49.632;8.346;2022-08-01T15:24:07;4.18;;;1.90;;
19810;SDS011;10065;49.632;8.346;2022-08-01T15:26:36;7.00;;;1.60;;
19810;SDS011;10065;49.632;8.346;2022-08-01T15:29:04;4.60;;;1.83;;
19810;SDS011;10065;49.632;8.346;2022-08-01T15:31:32;6.68;;;1.80;;
19810;SDS011;10065;49.632;8.346;2022-08-01T15:34:05;5.82;;;1.05;;
19810;SDS011;10065;49.632;8.346;2022-08-01T15:36:33;2.65;;;1.52;;
19810;SDS011;10065;49.632;8.346;2022-08-01T15:39:07;7.57;;;2.55;;
19810;SDS011;10065;49.632;8.346;2022-08-01T15:41:35;4.85;;;1.77;;
19810;SDS011;10065;49.632;8.346;2022-08-01T15:44:03;4.57;;;1.58;;
19810;SDS011;10065;49.632;8.346;2022-08-01T15:46:31;5.43;;;2.65;;
19810;SDS011;10065;49.632;8.346;2022-08-01T15:49:00;1.92;;;1.10;;
19810;SDS011;10065;49.632;8.346;2022-08-01T15:51:31;2.78;;;1.50;;
19810;SDS011;10065;49.632;8.346;2022-08-01T15:54:00;3.13;;;1.60;;
19810;SDS011;10065;49.632;8.346;2022-08-01T15:56:28;3.72;;;1.75;;
19810;SDS011;10065;49.632;8.346;2022-08-01T15:58:56;2.92;;;1.27;;
19810;SDS011;10065;49.632;8.346;2022-08-01T16:01:24;4.57;;;1.02;;
19810;SDS011;10065;49.632;8.346;2022-08-01T16:03:53;3.80;;;1.13;;
19810;SDS011;10065;49.632;8.346;2022-08-01T16:06:22;2.55;;;1.20;;
19810;SDS011;10065;49.632;8.346;2022-08-01T16:08:51;3.92;;;1.65;;
19810;SDS011;10065;49.632;8.346;2022-08-01T16:11:20;5.63;;;2.28;;
19810;SDS011;10065;49.632;8.346;2022-08-01T16:13:49;7.63;;;1.60;;
19810;SDS011;10065;49.632;8.346;2022-08-01T16:16:17;4.32;;;1.73;;
19810;SDS011;10065;49.632;8.346;2022-08-01T16:18:44;2.03;;;1.05;;
19810;SDS011;10065;49.632;8.346;2022-08-01T16:21:19;6.50;;;2.08;;